createdAt,value
2017-12-05T00:01:11.430Z,1.90
2017-12-05T00:03:38.970Z,1.50
2017-12-05T00:06:07.295Z,1.90
2017-12-05T00:08:34.841Z,2.20
2017-12-05T00:11:02.387Z,2.10
2017-12-05T00:13:29.930Z,1.63
2017-12-05T00:15:58.230Z,1.60
2017-12-05T00:18:25.788Z,2.00
2017-12-05T00:20:53.322Z,2.07
2017-12-05T00:23:21.631Z,1.87
2017-12-05T00:25:49.156Z,1.90
2017-12-05T00:28:17.496Z,2.00
2017-12-05T00:30:45.055Z,2.40
2017-12-05T00:33:12.582Z,1.70
2017-12-05T00:35:40.119Z,1.57
2017-12-05T00:38:08.422Z,1.60
2017-12-05T00:40:35.950Z,1.60
2017-12-05T00:43:04.327Z,1.77
2017-12-05T00:45:32.642Z,1.90
2017-12-05T00:48:00.170Z,1.77
2017-12-05T00:50:28.483Z,2.10
2017-12-05T00:52:56.024Z,2.00
2017-12-05T00:55:23.604Z,1.87
2017-12-05T00:57:51.140Z,1.97
2017-12-05T01:00:20.479Z,1.60
2017-12-05T01:02:48.018Z,1.83
2017-12-05T01:05:15.552Z,1.90
2017-12-05T01:07:43.870Z,1.87
2017-12-05T01:10:11.404Z,1.67
2017-12-05T01:12:38.947Z,1.67
2017-12-05T01:15:07.254Z,2.20
2017-12-05T01:17:34.782Z,1.50
2017-12-05T01:20:03.115Z,1.43
2017-12-05T01:22:30.663Z,1.80
2017-12-05T01:24:58.194Z,1.57
2017-12-05T01:27:26.499Z,2.00
2017-12-05T01:29:54.062Z,2.17
2017-12-05T01:32:21.622Z,1.77
2017-12-05T01:34:49.156Z,1.40
2017-12-05T01:37:16.767Z,1.87
2017-12-05T01:39:44.263Z,1.70
2017-12-05T01:42:12.591Z,1.47
2017-12-05T01:44:40.151Z,1.90
2017-12-05T01:47:07.697Z,1.60
2017-12-05T01:49:35.229Z,1.60
2017-12-05T01:52:02.801Z,1.50
2017-12-05T01:54:30.354Z,1.77
2017-12-05T01:56:57.914Z,1.47
2017-12-05T01:59:25.449Z,1.30
2017-12-05T02:01:52.983Z,1.60
2017-12-05T02:04:20.525Z,2.00
2017-12-05T02:06:48.069Z,1.60
2017-12-05T02:09:15.664Z,1.60
2017-12-05T02:11:43.207Z,1.70
2017-12-05T02:14:10.759Z,1.93
2017-12-05T02:16:38.294Z,1.97
2017-12-05T02:19:05.830Z,1.53
2017-12-05T02:21:34.176Z,1.77
2017-12-05T02:24:01.718Z,1.30
2017-12-05T02:26:29.262Z,1.50
2017-12-05T02:28:56.802Z,1.53
2017-12-05T02:31:25.100Z,1.50
2017-12-05T02:33:52.658Z,2.10
2017-12-05T02:36:20.183Z,1.50
2017-12-05T02:38:48.490Z,1.57
2017-12-05T02:41:16.019Z,1.40
2017-12-05T02:43:44.314Z,1.53
2017-12-05T02:46:11.883Z,2.00
2017-12-05T02:48:39.413Z,1.70
2017-12-05T02:51:06.942Z,1.53
2017-12-05T02:53:34.481Z,1.80
2017-12-05T02:56:02.015Z,1.50
2017-12-05T02:58:29.575Z,1.33
2017-12-05T03:00:57.139Z,1.93
2017-12-05T03:03:24.667Z,1.50
2017-12-05T03:05:52.212Z,1.93
2017-12-05T03:08:19.752Z,1.53
2017-12-05T03:10:47.330Z,1.70
2017-12-05T03:13:14.863Z,1.60
2017-12-05T03:15:42.399Z,1.43
2017-12-05T03:18:10.408Z,1.80
2017-12-05T03:20:37.940Z,1.10
2017-12-05T03:23:05.504Z,1.27
2017-12-05T03:25:33.039Z,1.63
2017-12-05T03:28:01.340Z,1.43
2017-12-05T03:30:28.879Z,1.10
2017-12-05T03:32:57.183Z,1.50
2017-12-05T03:35:24.750Z,1.67
2017-12-05T03:37:52.281Z,1.37
2017-12-05T03:40:19.816Z,1.43
2017-12-05T03:42:48.140Z,1.57
2017-12-05T03:45:15.673Z,1.40
2017-12-05T03:47:43.997Z,1.63
2017-12-05T03:50:11.523Z,1.77
2017-12-05T03:52:39.098Z,1.17
2017-12-05T03:55:06.630Z,1.40
2017-12-05T03:57:34.935Z,1.60
2017-12-05T04:00:02.498Z,1.47
2017-12-05T04:02:30.031Z,1.50
2017-12-05T04:04:57.566Z,1.30
2017-12-05T04:07:25.135Z,1.70
2017-12-05T04:09:53.443Z,1.57
2017-12-05T04:12:21.014Z,1.33
2017-12-05T04:14:48.554Z,1.20
2017-12-05T04:17:16.087Z,1.50
2017-12-05T04:19:44.394Z,1.67
2017-12-05T04:22:11.934Z,1.30
2017-12-05T04:24:40.260Z,1.53
2017-12-05T04:27:07.795Z,1.13
2017-12-05T04:29:35.333Z,1.20
2017-12-05T04:32:03.631Z,1.43
2017-12-05T04:34:31.165Z,1.70
2017-12-05T04:36:59.524Z,1.50
2017-12-05T04:39:27.054Z,1.53
2017-12-05T04:41:54.601Z,1.80
2017-12-05T04:44:22.135Z,1.80
2017-12-05T04:46:50.437Z,1.33
2017-12-05T04:49:17.992Z,1.13
2017-12-05T04:51:45.528Z,1.40
2017-12-05T04:54:13.830Z,1.43
2017-12-05T04:56:41.364Z,1.10
2017-12-05T04:59:09.665Z,1.27
2017-12-05T05:01:37.224Z,1.53
2017-12-05T05:04:04.759Z,1.33
2017-12-05T05:06:34.082Z,1.37
2017-12-05T05:09:01.626Z,1.40
2017-12-05T05:11:29.951Z,1.20
2017-12-05T05:13:57.526Z,1.30
2017-12-05T05:16:25.074Z,1.60
2017-12-05T05:18:52.613Z,1.10
2017-12-05T05:21:20.152Z,1.10
2017-12-05T05:23:47.703Z,1.30
2017-12-05T05:26:16.074Z,1.03
2017-12-05T05:28:44.387Z,1.33
2017-12-05T05:31:11.930Z,1.13
2017-12-05T05:33:39.467Z,1.40
2017-12-05T05:36:07.793Z,1.60
2017-12-05T05:38:35.371Z,1.10
2017-12-05T05:41:02.922Z,1.77
2017-12-05T05:43:30.462Z,1.30
2017-12-05T05:45:58.015Z,1.40
2017-12-05T05:48:28.582Z,1.40
2017-12-05T05:50:56.136Z,1.60
2017-12-05T05:53:28.164Z,1.10
2017-12-05T05:55:55.730Z,1.13
2017-12-05T05:58:23.298Z,1.30
2017-12-05T06:00:50.837Z,1.20
2017-12-05T06:03:18.378Z,1.70
2017-12-05T06:05:46.690Z,1.53
2017-12-05T06:08:15.039Z,1.50
2017-12-05T06:10:43.349Z,1.50
2017-12-05T06:13:10.920Z,1.90
2017-12-05T06:15:38.449Z,1.70
2017-12-05T06:18:05.987Z,1.67
2017-12-05T06:20:34.325Z,2.03
2017-12-05T06:23:01.856Z,1.70
2017-12-05T06:25:29.386Z,1.97
2017-12-05T06:27:57.682Z,1.60
2017-12-05T06:30:25.234Z,1.80
2017-12-05T06:33:05.531Z,2.20
2017-12-05T06:35:33.104Z,2.27
2017-12-05T06:38:00.640Z,2.13
2017-12-05T06:40:28.171Z,2.07
2017-12-05T06:42:56.482Z,2.17
2017-12-05T06:45:24.830Z,2.07
2017-12-05T06:47:53.142Z,2.10
2017-12-05T06:50:24.320Z,2.43
2017-12-05T06:52:51.857Z,1.83
2017-12-05T06:55:19.396Z,1.87
2017-12-05T06:58:05.540Z,2.07
2017-12-05T07:00:33.097Z,2.33
2017-12-05T07:03:00.666Z,1.70
2017-12-05T07:05:29.002Z,2.70
2017-12-05T07:07:56.560Z,1.63
2017-12-05T07:10:24.900Z,1.83
2017-12-05T07:12:53.233Z,2.30
2017-12-05T07:15:20.791Z,1.70
2017-12-05T07:17:48.357Z,2.10
2017-12-05T07:20:15.972Z,1.80
2017-12-05T07:22:43.526Z,2.50
2017-12-05T07:25:11.356Z,3.37
2017-12-05T07:27:38.908Z,3.30
2017-12-05T07:30:27.255Z,2.30
2017-12-05T07:32:54.788Z,2.43
2017-12-05T07:35:22.320Z,3.03
2017-12-05T07:37:50.616Z,2.63
2017-12-05T07:40:18.173Z,2.30
2017-12-05T07:42:45.744Z,2.67
2017-12-05T07:45:13.565Z,2.17
2017-12-05T07:47:41.883Z,2.67
2017-12-05T07:50:09.417Z,2.60
2017-12-05T07:52:37.760Z,2.73
2017-12-05T07:55:16.920Z,2.20
2017-12-05T07:57:44.464Z,2.47
2017-12-05T08:00:12.021Z,1.83
2017-12-05T08:02:39.563Z,2.17
2017-12-05T08:05:07.101Z,2.43
2017-12-05T08:07:34.679Z,2.07
2017-12-05T08:10:02.222Z,2.57
2017-12-05T08:12:29.776Z,1.90
2017-12-05T08:14:57.340Z,2.10
2017-12-05T08:17:24.882Z,1.80
2017-12-05T08:19:52.491Z,1.90
2017-12-05T08:22:20.036Z,1.57
2017-12-05T08:24:47.603Z,1.87
2017-12-05T08:27:15.159Z,2.00
2017-12-05T08:29:42.716Z,1.93
2017-12-05T08:32:10.301Z,1.83
2017-12-05T08:34:37.858Z,2.20
2017-12-05T08:37:05.415Z,2.43
2017-12-05T08:39:32.956Z,2.23
2017-12-05T08:42:00.504Z,1.70
2017-12-05T08:44:28.174Z,2.00
2017-12-05T08:46:55.743Z,1.80
2017-12-05T08:49:23.765Z,2.23
2017-12-05T08:51:52.076Z,1.50
2017-12-05T08:54:19.639Z,1.87
2017-12-05T08:56:47.217Z,2.30
2017-12-05T08:59:14.768Z,2.17
2017-12-05T09:01:42.304Z,2.17
2017-12-05T09:04:09.844Z,1.70
2017-12-05T09:06:38.151Z,1.83
2017-12-05T09:09:05.715Z,1.77
2017-12-05T09:11:33.254Z,2.10
2017-12-05T09:14:00.789Z,2.13
2017-12-05T09:16:28.331Z,1.93
2017-12-05T09:18:55.863Z,1.90
2017-12-05T09:21:23.434Z,2.07
2017-12-05T09:23:50.960Z,1.60
2017-12-05T09:26:18.501Z,2.00
2017-12-05T09:28:46.809Z,2.10
2017-12-05T09:31:14.355Z,2.47
2017-12-05T09:33:41.922Z,2.40
2017-12-05T09:36:09.487Z,2.10
2017-12-05T09:38:37.027Z,2.77
2017-12-05T09:41:04.573Z,1.90
2017-12-05T09:43:32.879Z,2.30
2017-12-05T09:46:00.445Z,1.80
2017-12-05T09:48:27.981Z,2.00
2017-12-05T09:50:55.530Z,2.20
2017-12-05T09:53:23.835Z,3.00
2017-12-05T09:55:51.370Z,1.67
2017-12-05T09:58:19.707Z,2.67
2017-12-05T10:00:47.274Z,2.10
2017-12-05T10:03:14.837Z,2.47
2017-12-05T10:05:42.384Z,2.03
2017-12-05T10:08:09.938Z,1.90
2017-12-05T10:10:37.499Z,1.90
2017-12-05T10:13:05.041Z,1.80
2017-12-05T10:15:32.568Z,2.13
2017-12-05T10:18:00.139Z,2.37
2017-12-05T10:20:27.682Z,1.97
2017-12-05T10:22:56.024Z,2.10
2017-12-05T10:25:23.562Z,1.97
2017-12-05T10:27:51.100Z,1.93
2017-12-05T10:30:18.640Z,2.10
2017-12-05T10:32:46.179Z,1.63
2017-12-05T10:35:14.528Z,2.60
2017-12-05T10:37:43.088Z,1.60
2017-12-05T10:40:10.636Z,1.70
2017-12-05T10:42:38.177Z,2.20
2017-12-05T10:45:06.495Z,1.70
2017-12-05T10:47:34.858Z,2.10
2017-12-05T10:50:02.415Z,2.20
2017-12-05T10:52:29.939Z,1.63
2017-12-05T10:54:57.475Z,2.10
2017-12-05T10:57:25.033Z,2.10
2017-12-05T10:59:52.610Z,1.60
2017-12-05T11:02:20.155Z,1.80
2017-12-05T11:04:47.711Z,1.60
2017-12-05T11:07:15.246Z,1.70
2017-12-05T11:09:42.797Z,1.90
2017-12-05T11:12:10.377Z,2.10
2017-12-05T11:14:37.917Z,1.90
2017-12-05T11:17:05.451Z,1.90
2017-12-05T11:19:33.786Z,1.73
2017-12-05T11:22:01.328Z,1.73
2017-12-05T11:24:28.897Z,2.17
2017-12-05T11:26:56.438Z,1.83
2017-12-05T11:29:24.016Z,1.63
2017-12-05T11:31:51.554Z,2.30
2017-12-05T11:34:19.134Z,1.67
2017-12-05T11:36:46.700Z,1.63
2017-12-05T11:39:14.251Z,1.70
2017-12-05T11:41:41.786Z,1.80
2017-12-05T11:44:09.318Z,1.47
2017-12-05T11:46:36.879Z,1.73
2017-12-05T11:49:04.430Z,1.60
2017-12-05T11:51:31.986Z,1.57
2017-12-05T11:53:59.526Z,2.47
2017-12-05T11:56:27.068Z,2.27
2017-12-05T11:58:54.623Z,1.47
2017-12-05T12:01:22.184Z,1.97
2017-12-05T12:03:49.771Z,1.70
2017-12-05T12:06:17.316Z,1.70
2017-12-05T12:08:44.872Z,1.80
2017-12-05T12:11:12.424Z,1.40
2017-12-05T12:13:39.990Z,1.90
2017-12-05T12:16:24.778Z,1.57
2017-12-05T12:18:52.364Z,1.63
2017-12-05T12:21:20.686Z,1.83
2017-12-05T12:23:48.223Z,2.37
2017-12-05T12:26:16.525Z,1.20
2017-12-05T12:28:44.053Z,1.80
2017-12-05T12:31:12.389Z,1.73
2017-12-05T12:33:49.928Z,1.50
2017-12-05T12:36:18.279Z,1.30
2017-12-05T12:38:45.826Z,1.60
2017-12-05T12:41:13.434Z,1.87
2017-12-05T12:43:41.728Z,1.50
2017-12-05T12:46:09.286Z,1.50
2017-12-05T12:48:36.848Z,1.70
2017-12-05T12:51:04.408Z,2.00
2017-12-05T12:53:31.947Z,1.77
2017-12-05T12:56:00.255Z,1.50
2017-12-05T12:58:27.841Z,1.97
2017-12-05T13:00:55.427Z,1.67
2017-12-05T13:03:22.959Z,1.43
2017-12-05T13:05:50.506Z,1.50
2017-12-05T13:08:18.060Z,1.70
2017-12-05T13:10:45.592Z,1.77
2017-12-05T13:13:13.165Z,1.50
2017-12-05T13:15:40.715Z,1.90
2017-12-05T13:18:08.271Z,1.53
2017-12-05T13:20:35.825Z,1.90
2017-12-05T13:23:04.119Z,1.47
2017-12-05T13:25:31.695Z,1.70
2017-12-05T13:27:59.231Z,1.70
2017-12-05T13:30:26.769Z,1.70
2017-12-05T13:32:55.076Z,1.83
2017-12-05T13:35:22.611Z,1.80
2017-12-05T13:37:50.932Z,1.77
2017-12-05T13:40:18.477Z,1.50
2017-12-05T13:42:46.019Z,1.63
2017-12-05T13:45:14.366Z,1.70
2017-12-05T13:47:41.916Z,1.60
2017-12-05T13:50:09.476Z,1.63
2017-12-05T13:52:37.015Z,1.50
2017-12-05T13:55:04.549Z,1.73
2017-12-05T13:57:32.116Z,1.60
2017-12-05T13:59:59.667Z,1.80
2017-12-05T14:02:27.241Z,1.43
2017-12-05T14:04:54.833Z,1.80
2017-12-05T14:07:22.355Z,1.73
2017-12-05T14:09:50.115Z,1.50
2017-12-05T14:12:18.834Z,1.20
2017-12-05T14:14:46.372Z,1.73
2017-12-05T14:17:13.906Z,1.90
2017-12-05T14:19:42.238Z,1.80
2017-12-05T14:22:09.770Z,1.50
2017-12-05T14:24:37.318Z,1.83
2017-12-05T14:27:04.869Z,1.90
2017-12-05T14:29:33.168Z,1.70
2017-12-05T14:32:00.736Z,1.77
2017-12-05T14:34:28.277Z,1.67
2017-12-05T14:36:55.807Z,1.77
2017-12-05T14:39:24.107Z,1.60
2017-12-05T14:41:51.685Z,1.70
2017-12-05T14:44:19.252Z,1.50
2017-12-05T14:46:46.834Z,1.70
2017-12-05T14:49:14.378Z,2.17
2017-12-05T14:51:42.530Z,1.60
2017-12-05T14:54:10.092Z,1.70
2017-12-05T14:56:37.668Z,1.67
2017-12-05T14:59:05.231Z,1.90
2017-12-05T15:01:32.781Z,1.57
2017-12-05T15:04:00.332Z,1.80
2017-12-05T15:06:27.995Z,1.50
2017-12-05T15:08:55.558Z,1.70
2017-12-05T15:11:23.092Z,1.97
2017-12-05T15:13:51.396Z,1.37
2017-12-05T15:16:18.937Z,1.37
2017-12-05T15:18:46.493Z,1.40
2017-12-05T15:21:19.533Z,1.57
2017-12-05T15:23:47.075Z,1.80
2017-12-05T15:26:14.619Z,2.00
2017-12-05T15:28:42.162Z,1.33
2017-12-05T15:31:14.348Z,1.40
2017-12-05T15:33:41.926Z,1.63
2017-12-05T15:36:09.484Z,1.80
2017-12-05T15:38:37.039Z,1.40
2017-12-05T15:41:04.590Z,1.50
2017-12-05T15:43:32.137Z,1.53
2017-12-05T15:45:59.736Z,2.33
2017-12-05T15:48:29.647Z,1.63
2017-12-05T15:50:57.191Z,1.50
2017-12-05T15:53:24.762Z,1.83
2017-12-05T15:55:52.357Z,1.33
2017-12-05T15:58:19.916Z,1.80
2017-12-05T16:00:47.445Z,1.60
2017-12-05T16:03:14.982Z,1.73
2017-12-05T16:05:42.528Z,2.03
2017-12-05T16:08:10.057Z,1.80
2017-12-05T16:10:37.634Z,1.70
2017-12-05T16:13:05.192Z,2.23
2017-12-05T16:15:32.739Z,1.70
2017-12-05T16:18:00.271Z,1.70
2017-12-05T16:20:27.796Z,1.67
2017-12-05T16:22:55.359Z,1.80
2017-12-05T16:25:22.895Z,1.90
2017-12-05T16:27:51.225Z,1.60
2017-12-05T16:30:18.773Z,1.67
2017-12-05T16:32:46.327Z,1.83
2017-12-05T16:35:13.850Z,1.40
2017-12-05T16:37:42.155Z,1.50
2017-12-05T16:40:09.739Z,1.83
2017-12-05T16:42:37.286Z,1.80
2017-12-05T16:45:04.832Z,1.60
2017-12-05T16:47:32.372Z,1.73
2017-12-05T16:50:00.687Z,1.77
2017-12-05T16:52:28.262Z,1.70
2017-12-05T16:54:55.809Z,1.87
2017-12-05T16:57:24.114Z,1.50
2017-12-05T16:59:51.676Z,2.07
2017-12-05T17:02:19.998Z,1.53
2017-12-05T17:04:48.152Z,1.57
2017-12-05T17:07:15.699Z,1.87
2017-12-05T17:09:47.766Z,1.60
2017-12-05T17:12:15.381Z,1.93
2017-12-05T17:14:42.941Z,1.50
2017-12-05T17:17:10.512Z,1.83
2017-12-05T17:19:38.076Z,1.67
2017-12-05T17:22:05.663Z,1.90
2017-12-05T17:24:33.234Z,1.70
2017-12-05T17:27:00.763Z,1.77
2017-12-05T17:29:29.129Z,1.63
2017-12-05T17:31:57.595Z,1.70
2017-12-05T17:34:25.194Z,1.40
2017-12-05T17:36:53.720Z,1.67
2017-12-05T17:39:22.023Z,1.90
2017-12-05T17:41:49.551Z,2.10
2017-12-05T17:44:17.861Z,1.90
2017-12-05T17:46:45.432Z,1.97
2017-12-05T17:49:12.971Z,1.47
2017-12-05T17:51:41.470Z,1.70
2017-12-05T17:54:09.010Z,2.13
2017-12-05T17:56:36.552Z,1.73
2017-12-05T17:59:04.891Z,2.13
2017-12-05T18:01:32.491Z,1.90
2017-12-05T18:04:00.807Z,1.70
2017-12-05T18:06:28.345Z,2.00
2017-12-05T18:08:55.903Z,2.10
2017-12-05T18:11:23.480Z,1.60
2017-12-05T18:13:51.016Z,1.90
2017-12-05T18:16:19.317Z,2.07
2017-12-05T18:18:46.860Z,2.03
2017-12-05T18:21:14.407Z,1.83
2017-12-05T18:23:42.744Z,1.47
2017-12-05T18:26:10.293Z,2.00
2017-12-05T18:28:37.831Z,2.07
2017-12-05T18:31:05.366Z,1.77
2017-12-05T18:33:33.678Z,2.30
2017-12-05T18:36:01.248Z,1.70
2017-12-05T18:38:28.792Z,1.60
2017-12-05T18:40:56.351Z,1.60
2017-12-05T18:43:23.896Z,2.10
2017-12-05T18:45:51.449Z,1.90
2017-12-05T18:48:19.784Z,2.30
2017-12-05T18:50:47.332Z,2.03
2017-12-05T18:53:14.891Z,2.10
2017-12-05T18:55:42.434Z,2.20
2017-12-05T18:58:09.975Z,1.90
2017-12-05T19:00:37.591Z,2.23
2017-12-05T19:03:05.131Z,2.00
2017-12-05T19:05:32.670Z,1.67
2017-12-05T19:08:00.214Z,1.90
2017-12-05T19:10:27.811Z,2.07
2017-12-05T19:12:55.372Z,1.83
2017-12-05T19:15:22.938Z,1.93
2017-12-05T19:17:50.663Z,2.60
2017-12-05T19:20:18.277Z,1.60
2017-12-05T19:22:45.835Z,1.73
2017-12-05T19:25:13.397Z,2.00
2017-12-05T19:27:40.937Z,2.30
2017-12-05T19:30:08.554Z,2.40
2017-12-05T19:32:36.875Z,2.07
2017-12-05T19:37:57.070Z,6.60
2017-12-05T19:40:24.638Z,5.20
2017-12-05T19:42:52.176Z,3.00
2017-12-05T19:45:19.753Z,3.10
2017-12-05T19:47:47.295Z,2.67
2017-12-05T19:50:14.860Z,3.20
2017-12-05T19:52:42.457Z,3.10
2017-12-05T19:55:09.993Z,2.70
2017-12-05T19:57:37.598Z,3.00
2017-12-05T20:00:05.155Z,3.60
2017-12-05T20:02:32.844Z,4.67
2017-12-05T20:05:08.326Z,5.30
2017-12-05T20:07:35.951Z,4.83
2017-12-05T20:10:05.509Z,5.90
2017-12-05T20:12:33.048Z,5.57
2017-12-05T20:15:00.587Z,5.50
2017-12-05T20:17:28.130Z,6.07
2017-12-05T20:20:07.075Z,6.70
2017-12-05T20:22:40.820Z,7.60
2017-12-05T20:25:12.674Z,6.60
2017-12-05T20:30:57.706Z,6.50
2017-12-05T20:36:25.386Z,6.63
2017-12-05T20:38:58.471Z,8.20
2017-12-05T20:41:26.319Z,7.07
2017-12-05T20:44:10.429Z,6.70
2017-12-05T20:46:38.015Z,7.00
2017-12-05T20:49:06.581Z,7.37
2017-12-05T20:51:39.709Z,7.50
2017-12-05T20:54:07.239Z,7.60
2017-12-05T20:56:35.587Z,7.67
2017-12-05T20:59:03.895Z,8.33
2017-12-05T21:01:31.439Z,8.07
2017-12-05T21:03:59.034Z,7.93
2017-12-05T21:06:26.598Z,7.70
2017-12-05T21:08:54.146Z,8.50
2017-12-05T21:11:21.935Z,8.60
2017-12-05T21:13:49.727Z,7.13
2017-12-05T21:16:18.085Z,7.73
2017-12-05T21:18:46.506Z,8.00
2017-12-05T21:21:14.050Z,7.67
2017-12-05T21:23:42.358Z,7.33
2017-12-05T21:26:09.924Z,9.03
2017-12-05T21:28:38.274Z,7.87
2017-12-05T21:31:05.827Z,7.73
2017-12-05T21:33:34.147Z,8.20
2017-12-05T21:36:01.685Z,8.40
2017-12-05T21:38:29.255Z,7.50
2017-12-05T21:40:56.816Z,7.83
2017-12-05T21:43:24.354Z,8.10
2017-12-05T21:45:52.651Z,7.90
2017-12-05T21:48:20.203Z,6.60
2017-12-05T21:50:47.751Z,7.77
2017-12-05T21:53:15.528Z,8.47
2017-12-05T21:55:43.474Z,8.30
2017-12-05T21:58:20.685Z,7.13
2017-12-05T22:01:06.343Z,7.73
2017-12-05T22:03:35.170Z,7.10
2017-12-05T22:06:02.767Z,7.30
2017-12-05T22:08:33.703Z,7.50
2017-12-05T22:11:01.245Z,7.40
2017-12-05T22:13:28.809Z,7.27
2017-12-05T22:15:56.382Z,7.10
2017-12-05T22:18:23.929Z,7.10
2017-12-05T22:20:51.467Z,7.00
2017-12-05T22:23:19.019Z,7.00
2017-12-05T22:25:53.415Z,7.60
2017-12-05T22:28:21.723Z,6.87
2017-12-05T22:30:49.274Z,6.43
2017-12-05T22:33:16.861Z,7.00
2017-12-05T22:35:44.414Z,7.40
2017-12-05T22:38:11.970Z,7.00
2017-12-05T22:40:39.518Z,6.20
2017-12-05T22:43:07.062Z,6.23
2017-12-05T22:45:35.391Z,6.33
2017-12-05T22:48:02.947Z,6.90
2017-12-05T22:50:30.500Z,6.07
2017-12-05T22:52:58.043Z,5.87
2017-12-05T22:55:25.593Z,5.90
2017-12-05T22:57:53.178Z,5.70
2017-12-05T23:00:20.734Z,6.47
2017-12-05T23:02:48.293Z,6.10
2017-12-05T23:05:16.162Z,6.00
2017-12-05T23:07:43.708Z,5.90
2017-12-05T23:10:11.271Z,5.50
2017-12-05T23:12:38.832Z,5.57
2017-12-05T23:15:06.371Z,5.60
2017-12-05T23:17:33.924Z,5.30
2017-12-05T23:20:02.240Z,5.50
2017-12-05T23:22:29.835Z,5.60
2017-12-05T23:24:57.384Z,5.23
2017-12-05T23:27:24.940Z,5.30
2017-12-05T23:29:52.479Z,5.73
2017-12-05T23:32:20.012Z,5.93
2017-12-05T23:34:48.341Z,5.63
2017-12-05T23:37:15.892Z,5.77
2017-12-05T23:39:43.435Z,5.93
2017-12-05T23:42:10.984Z,5.40
2017-12-05T23:44:38.543Z,5.10
2017-12-05T23:47:06.103Z,5.30
2017-12-05T23:49:33.655Z,5.30
2017-12-05T23:52:01.203Z,4.37
2017-12-05T23:54:29.528Z,5.20
2017-12-05T23:56:57.059Z,4.97
2017-12-05T23:59:24.619Z,4.37
